Time;durP1;ratioP1;P1;durP2;ratioP2;P2;SDS_P1;SDS_P2;PMS_P1;PMS_P2;Temp;Humidity;BMP_temperature;BMP_pressure;BME280_temperature;BME280_humidity;BME280_pressure;Samples;Min_cycle;Max_cycle;Signal;HPM_P1;HPM_P2
2023/03/26 00:01:28;;;;;;;8.93;6.67;;;9.40;99.90;;;;;;5034976;28;20252;-65
2023/03/26 00:03:56;;;;;;;24.67;7.47;;;9.40;99.90;;;;;;5052543;28;20175;-65
2023/03/26 00:06:25;;;;;;;10.80;7.77;;;9.40;99.90;;;;;;5049635;28;20660;-65
2023/03/26 00:08:51;;;;;;;11.53;6.27;;;9.30;99.90;;;;;;5032434;28;20194;-65
2023/03/26 00:11:20;;;;;;;10.73;7.27;;;9.30;99.90;;;;;;5047074;28;20197;-64
2023/03/26 00:13:46;;;;;;;13.90;7.57;;;9.30;99.90;;;;;;5052257;28;20198;-65
2023/03/26 00:16:16;;;;;;;15.17;8.00;;;9.30;99.90;;;;;;5037398;28;20184;-64
2023/03/26 00:18:42;;;;;;;17.73;7.40;;;9.40;99.90;;;;;;5032192;28;20243;-65
2023/03/26 00:21:11;;;;;;;12.80;6.67;;;9.40;99.90;;;;;;5044389;28;20614;-64
2023/03/26 00:23:37;;;;;;;16.57;7.17;;;9.50;99.90;;;;;;5052098;28;20248;-64
2023/03/26 00:26:04;;;;;;;10.50;6.23;;;9.50;99.90;;;;;;5039867;28;20644;-65
2023/03/26 00:28:30;;;;;;;13.97;6.27;;;9.60;99.90;;;;;;5032089;28;20195;-65
2023/03/26 00:31:00;;;;;;;14.17;7.10;;;9.60;99.90;;;;;;5021899;28;20183;-64
2023/03/26 00:33:27;;;;;;;8.67;7.17;;;9.60;99.90;;;;;;5052001;28;20167;-64
2023/03/26 00:35:55;;;;;;;8.97;6.10;;;9.60;99.90;;;;;;5042362;28;20232;-64
2023/03/26 00:38:22;;;;;;;8.87;6.03;;;9.70;99.90;;;;;;5038839;28;20463;-64
2023/03/26 00:40:49;;;;;;;13.90;7.73;;;9.60;99.90;;;;;;5051462;28;20623;-64
2023/03/26 00:43:19;;;;;;;7.37;6.70;;;9.60;99.90;;;;;;5044877;28;20175;-64
2023/03/26 00:45:46;;;;;;;10.40;7.83;;;9.50;99.90;;;;;;5031706;28;20255;-64
2023/03/26 00:48:12;;;;;;;11.23;7.23;;;9.50;99.90;;;;;;5036109;28;20300;-65
2023/03/26 00:50:38;;;;;;;7.77;6.97;;;9.50;99.90;;;;;;5051210;28;20210;-65
2023/03/26 00:53:04;;;;;;;15.43;6.57;;;9.40;99.90;;;;;;5048010;28;20179;-64
2023/03/26 00:55:30;;;;;;;11.70;8.63;;;9.30;99.90;;;;;;5031664;28;20267;-64
2023/03/26 00:57:56;;;;;;;7.50;6.67;;;9.30;99.90;;;;;;5032980;28;20171;-65
2023/03/26 01:00:30;;;;;;;11.57;5.83;;;9.40;99.90;;;;;;5050877;28;20199;-64
2023/03/26 01:02:57;;;;;;;11.50;6.37;;;9.40;99.90;;;;;;5050248;28;20172;-64
2023/03/26 01:05:47;;;;;;;14.13;7.47;;;9.40;99.90;;;;;;5051136;28;20192;-65
2023/03/26 01:08:41;;;;;;;9.30;6.93;;;9.40;99.90;;;;;;5048432;28;20182;-65
2023/03/26 01:11:13;;;;;;;12.77;6.03;;;9.40;99.90;;;;;;5030585;28;20258;-65
2023/03/26 01:13:47;;;;;;;12.77;7.10;;;9.30;99.90;;;;;;5036549;28;20266;-65
2023/03/26 01:16:35;;;;;;;10.30;6.17;;;9.30;99.90;;;;;;5051165;28;20597;-65
2023/03/26 01:19:03;;;;;;;10.33;7.20;;;9.20;99.90;;;;;;5042520;28;20661;-65
2023/03/26 01:21:29;;;;;;;8.53;6.90;;;9.00;99.90;;;;;;5031137;28;20563;-67
2023/03/26 01:23:59;;;;;;;9.33;6.90;;;8.90;99.90;;;;;;5037928;28;20179;-65
2023/03/26 01:26:46;;;;;;;13.57;8.13;;;8.80;99.90;;;;;;5051249;28;20249;-64
2023/03/26 01:29:21;;;;;;;8.00;7.10;;;8.60;99.90;;;;;;5041825;28;20199;-65
2023/03/26 01:31:56;;;;;;;12.27;6.67;;;8.50;99.90;;;;;;5035351;28;20269;-64
2023/03/26 01:34:42;;;;;;;8.40;7.57;;;8.30;99.90;;;;;;5051061;28;20174;-64
2023/03/26 01:37:24;;;;;;;9.80;6.80;;;8.20;99.90;;;;;;5043989;28;20194;-64
2023/03/26 01:40:06;;;;;;;7.40;6.60;;;8.10;99.90;;;;;;5030612;28;20214;-65
2023/03/26 01:43:20;;;;;;;13.07;7.43;;;7.90;99.90;;;;;;5034641;28;20187;-65
2023/03/26 01:45:48;;;;;;;13.53;7.63;;;7.90;99.90;;;;;;4950993;29;20181;-64
2023/03/26 01:48:14;;;;;;;8.67;7.87;;;7.80;99.90;;;;;;5023160;28;20298;-64
2023/03/26 01:50:40;;;;;;;15.90;7.93;;;7.70;99.90;;;;;;5030972;28;20206;-64
2023/03/26 01:53:08;;;;;;;9.20;6.23;;;7.60;99.90;;;;;;5030761;28;20180;-64
2023/03/26 01:55:55;;;;;;;11.83;8.00;;;7.50;99.90;;;;;;5033833;28;20258;-64
2023/03/26 01:58:51;;;;;;;11.50;8.50;;;7.50;99.90;;;;;;5054742;28;20668;-65
2023/03/26 02:01:35;;;;;;;10.37;6.63;;;7.40;99.90;;;;;;5037514;28;20207;-64
2023/03/26 02:04:25;;;;;;;10.23;9.17;;;7.30;99.90;;;;;;5035720;28;20190;-65
2023/03/26 02:07:08;;;;;;;9.27;8.50;;;7.30;99.90;;;;;;5035006;28;20541;-65
2023/03/26 02:09:46;;;;;;;7.43;6.77;;;7.30;99.90;;;;;;5014565;28;20239;-64
2023/03/26 02:12:13;;;;;;;7.57;6.80;;;7.40;99.90;;;;;;5016658;28;20177;-64
2023/03/26 02:14:41;;;;;;;11.33;8.37;;;7.40;99.90;;;;;;5034648;28;20516;-65
2023/03/26 02:17:08;;;;;;;8.63;8.00;;;7.40;99.90;;;;;;5041924;28;20175;-65
2023/03/26 02:19:34;;;;;;;11.67;7.83;;;7.40;99.90;;;;;;5054119;28;20604;-66
2023/03/26 02:22:00;;;;;;;7.70;6.90;;;7.40;99.90;;;;;;5047539;28;20204;-65
2023/03/26 02:24:26;;;;;;;7.57;6.80;;;7.50;99.90;;;;;;5034555;28;20175;-65
2023/03/26 02:26:52;;;;;;;9.33;7.43;;;7.50;99.90;;;;;;5038918;28;20240;-64
2023/03/26 02:29:19;;;;;;;8.83;7.40;;;7.60;99.90;;;;;;5053676;28;20195;-65
2023/03/26 02:31:47;;;;;;;7.43;6.43;;;7.60;99.90;;;;;;5050615;28;20254;-65
2023/03/26 02:34:13;;;;;;;8.30;7.73;;;7.70;99.90;;;;;;5034160;28;20184;-64
2023/03/26 02:36:41;;;;;;;8.30;7.70;;;7.70;99.90;;;;;;5035806;28;20271;-64
2023/03/26 02:39:09;;;;;;;8.43;7.63;;;7.80;99.90;;;;;;5053344;28;20217;-65
2023/03/26 02:41:36;;;;;;;17.13;7.30;;;7.90;99.90;;;;;;5052695;28;20607;-65
2023/03/26 02:44:02;;;;;;;11.47;6.87;;;7.90;99.90;;;;;;5033936;28;20171;-64
2023/03/26 02:46:27;;;;;;;8.00;5.97;;;8.00;99.90;;;;;;5033964;28;20171;-64
2023/03/26 02:48:53;;;;;;;6.87;5.93;;;8.10;99.90;;;;;;5052850;28;20294;-64
2023/03/26 02:51:19;;;;;;;11.67;7.07;;;8.10;99.90;;;;;;5053210;28;20228;-64
2023/03/26 02:53:44;;;;;;;8.57;6.83;;;8.20;99.90;;;;;;5052151;28;20178;-64
2023/03/26 02:56:11;;;;;;;7.20;6.60;;;8.20;99.90;;;;;;5053648;28;20175;-64
2023/03/26 02:58:37;;;;;;;14.30;6.40;;;8.20;99.90;;;;;;5037587;28;20179;-64
2023/03/26 03:01:02;;;;;;;8.83;5.77;;;8.30;99.90;;;;;;5033169;28;20218;-65
2023/03/26 03:03:28;;;;;;;10.33;6.33;;;8.30;99.90;;;;;;5047455;28;20185;-64
2023/03/26 03:05:55;;;;;;;6.97;6.67;;;8.40;99.90;;;;;;5053269;28;20178;-64
2023/03/26 03:08:25;;;;;;;7.83;7.00;;;8.40;99.90;;;;;;5040620;28;20711;-65
2023/03/26 03:11:01;;;;;;;7.60;6.73;;;8.40;99.90;;;;;;5033291;28;20535;-65
2023/03/26 03:13:27;;;;;;;7.47;6.90;;;8.50;99.90;;;;;;5046143;28;20664;-65
2023/03/26 03:15:53;;;;;;;14.00;6.70;;;8.50;99.90;;;;;;5053711;28;20246;-65
2023/03/26 03:18:19;;;;;;;7.83;5.80;;;8.50;99.90;;;;;;5041732;28;20672;-65
2023/03/26 03:20:45;;;;;;;9.10;5.93;;;8.50;99.90;;;;;;5032934;28;20637;-65
2023/03/26 03:23:11;;;;;;;7.93;7.13;;;8.50;99.90;;;;;;5032955;28;20193;-65
2023/03/26 03:25:37;;;;;;;6.67;5.77;;;8.50;99.90;;;;;;5037324;28;20667;-64
2023/03/26 03:28:03;;;;;;;10.17;6.57;;;8.60;99.90;;;;;;5052983;28;20171;-64
2023/03/26 03:30:29;;;;;;;6.10;5.50;;;8.60;99.90;;;;;;5052838;28;20194;-65
2023/03/26 03:32:57;;;;;;;9.00;5.97;;;8.60;99.90;;;;;;5053219;28;20309;-64
2023/03/26 03:35:23;;;;;;;7.63;6.97;;;8.60;99.90;;;;;;5051501;28;20186;-64
2023/03/26 03:37:49;;;;;;;6.60;6.00;;;8.70;99.90;;;;;;5033344;28;20179;-64
2023/03/26 03:40:15;;;;;;;6.87;6.17;;;8.70;99.90;;;;;;5042196;28;20783;-64
2023/03/26 03:42:42;;;;;;;10.47;6.63;;;8.70;99.90;;;;;;5053243;28;20199;-64
2023/03/26 03:45:08;;;;;;;7.03;6.47;;;8.80;99.90;;;;;;5043808;28;20238;-64
2023/03/26 03:47:34;;;;;;;7.27;6.57;;;8.80;99.90;;;;;;5032925;28;20175;-63
2023/03/26 03:50:00;;;;;;;7.67;7.13;;;8.80;99.90;;;;;;5038965;28;20676;-64
2023/03/26 03:52:26;;;;;;;8.00;7.50;;;8.80;99.90;;;;;;5052008;28;20561;-64
2023/03/26 03:54:53;;;;;;;7.77;6.73;;;8.80;99.90;;;;;;5038102;28;20518;-65
2023/03/26 03:57:20;;;;;;;7.63;6.80;;;8.80;99.90;;;;;;5032502;28;20179;-64
2023/03/26 03:59:46;;;;;;;6.97;6.53;;;8.80;99.90;;;;;;5044927;28;20699;-64
2023/03/26 04:02:12;;;;;;;13.97;6.93;;;8.80;99.90;;;;;;5052336;28;20285;-64
2023/03/26 04:04:38;;;;;;;7.77;6.47;;;8.70;99.90;;;;;;5041259;28;20705;-65
2023/03/26 04:07:05;;;;;;;7.43;6.57;;;8.70;99.90;;;;;;5032602;28;20168;-64
2023/03/26 04:09:30;;;;;;;7.23;6.67;;;8.70;99.90;;;;;;5041474;28;20203;-65
2023/03/26 04:11:56;;;;;;;8.60;8.10;;;8.70;99.90;;;;;;5052216;28;20205;-65
2023/03/26 04:14:22;;;;;;;8.50;7.53;;;8.60;99.90;;;;;;5044072;28;20194;-65
2023/03/26 04:16:50;;;;;;;7.83;7.23;;;8.50;99.90;;;;;;5032321;28;20179;-65
2023/03/26 04:19:16;;;;;;;12.43;8.40;;;8.50;99.90;;;;;;5037564;28;20202;-65
2023/03/26 04:21:41;;;;;;;7.83;6.90;;;8.50;99.90;;;;;;5051650;28;20289;-64
2023/03/26 04:24:08;;;;;;;6.47;6.07;;;8.40;99.90;;;;;;5052017;28;20782;-65
2023/03/26 04:26:34;;;;;;;5.83;5.43;;;8.40;99.90;;;;;;5049174;28;20202;-65
2023/03/26 04:29:03;;;;;;;7.33;7.00;;;8.30;99.90;;;;;;5031973;28;20241;-65
2023/03/26 04:31:29;;;;;;;7.27;6.20;;;8.30;99.90;;;;;;5015185;28;20646;-65
2023/03/26 04:34:28;;;;;;;6.93;6.30;;;8.30;99.90;;;;;;5034075;28;20186;-65
2023/03/26 04:36:54;;;;;;;14.40;7.10;;;8.30;99.90;;;;;;4992895;28;20191;-64
2023/03/26 04:39:28;;;;;;;8.47;8.00;;;8.20;99.90;;;;;;5031867;28;20213;-64
2023/03/26 04:41:57;;;;;;;9.73;6.47;;;8.20;99.90;;;;;;5017419;28;20209;-65
2023/03/26 04:44:22;;;;;;;6.90;5.80;;;8.10;99.90;;;;;;5051719;28;20174;-64
2023/03/26 04:46:51;;;;;;;7.27;6.50;;;8.10;99.90;;;;;;5050984;28;20233;-64
2023/03/26 04:49:17;;;;;;;6.07;5.77;;;8.10;99.90;;;;;;5049998;28;20771;-64
2023/03/26 04:51:45;;;;;;;13.87;5.90;;;8.10;99.90;;;;;;5031788;28;20586;-65
2023/03/26 04:54:13;;;;;;;6.73;6.23;;;8.10;99.90;;;;;;5031503;28;20175;-65
2023/03/26 04:57:02;;;;;;;7.07;6.43;;;8.10;99.90;;;;;;5051221;28;20174;-64
2023/03/26 04:59:33;;;;;;;8.00;6.20;;;8.10;99.90;;;;;;5049811;28;20203;-64
2023/03/26 05:02:00;;;;;;;6.37;6.07;;;8.20;99.90;;;;;;5031505;28;20199;-64
2023/03/26 05:04:28;;;;;;;8.80;6.30;;;8.10;99.90;;;;;;5031764;28;20182;-64
2023/03/26 05:06:55;;;;;;;7.07;6.57;;;8.20;99.90;;;;;;5051428;28;20182;-64
2023/03/26 05:09:21;;;;;;;11.23;5.90;;;8.20;99.90;;;;;;5011087;28;20203;-64
2023/03/26 05:11:47;;;;;;;7.80;6.90;;;8.20;99.90;;;;;;5011802;28;20246;-64
2023/03/26 05:14:12;;;;;;;10.73;7.00;;;8.30;99.90;;;;;;5048096;28;20543;-64
2023/03/26 05:16:40;;;;;;;7.83;7.07;;;8.30;99.90;;;;;;5051522;28;20187;-64
2023/03/26 05:19:05;;;;;;;6.70;6.10;;;8.30;99.90;;;;;;5034088;28;20199;-65
2023/03/26 05:21:31;;;;;;;10.20;6.17;;;8.30;99.90;;;;;;5031136;28;20552;-65
2023/03/26 05:23:57;;;;;;;11.77;6.90;;;8.40;99.90;;;;;;5045988;28;20186;-64
2023/03/26 05:26:22;;;;;;;7.33;6.83;;;8.40;99.90;;;;;;5051318;28;20174;-64
2023/03/26 05:28:48;;;;;;;9.80;7.37;;;8.40;99.90;;;;;;5037940;28;20223;-64
2023/03/26 05:31:16;;;;;;;7.47;6.90;;;8.40;99.90;;;;;;5032530;28;20684;-65
2023/03/26 05:33:42;;;;;;;14.40;6.63;;;8.50;99.90;;;;;;5047025;28;20174;-64
2023/03/26 05:36:14;;;;;;;7.77;7.10;;;8.50;99.90;;;;;;5037419;28;20670;-64
2023/03/26 05:38:40;;;;;;;11.40;7.30;;;8.50;99.90;;;;;;5042692;28;20249;-65
2023/03/26 05:41:08;;;;;;;7.70;7.10;;;8.50;99.90;;;;;;5034810;28;20282;-64
2023/03/26 05:43:34;;;;;;;6.53;5.93;;;8.50;99.90;;;;;;5038709;28;20179;-65
2023/03/26 05:46:00;;;;;;;8.73;6.63;;;8.40;99.90;;;;;;5034880;28;20182;-66
2023/03/26 05:48:26;;;;;;;7.70;7.13;;;8.40;99.90;;;;;;5035186;28;20167;-66
2023/03/26 05:50:56;;;;;;;8.00;7.10;;;8.40;99.90;;;;;;5034854;28;20179;-66
2023/03/26 05:53:23;;;;;;;6.83;6.07;;;8.30;99.90;;;;;;5035117;28;20179;-66
2023/03/26 05:55:54;;;;;;;6.10;5.70;;;8.30;99.90;;;;;;5035063;28;20641;-66
2023/03/26 05:58:20;;;;;;;8.57;6.33;;;8.20;99.90;;;;;;5042415;28;20178;-65
2023/03/26 06:00:47;;;;;;;6.87;6.13;;;8.20;99.90;;;;;;5050216;28;20215;-65
2023/03/26 06:03:13;;;;;;;6.40;5.83;;;8.10;99.90;;;;;;5040841;28;20178;-65
2023/03/26 06:05:39;;;;;;;5.70;5.30;;;8.10;99.90;;;;;;5054698;28;20262;-65
2023/03/26 06:08:05;;;;;;;6.23;5.80;;;8.10;99.90;;;;;;5050150;28;20266;-66
2023/03/26 06:10:31;;;;;;;5.60;5.40;;;8.10;99.90;;;;;;5016702;28;20202;-65
2023/03/26 06:12:57;;;;;;;6.00;5.60;;;8.10;99.90;;;;;;5051882;28;20190;-66
2023/03/26 06:15:23;;;;;;;7.87;6.20;;;8.10;99.90;;;;;;5048377;28;20186;-65
2023/03/26 06:17:48;;;;;;;6.20;5.80;;;8.00;99.90;;;;;;5034654;28;20633;-65
2023/03/26 06:20:14;;;;;;;6.60;6.23;;;8.10;99.90;;;;;;5037884;28;20206;-65
2023/03/26 06:22:40;;;;;;;6.53;6.13;;;8.10;99.90;;;;;;5054380;28;20251;-65
2023/03/26 06:25:06;;;;;;;6.00;5.70;;;8.10;99.90;;;;;;5051709;28;20183;-65
2023/03/26 06:27:32;;;;;;;8.87;6.40;;;8.00;99.90;;;;;;5034323;28;20271;-65
2023/03/26 06:29:57;;;;;;;7.00;6.40;;;8.00;99.90;;;;;;5034517;28;20764;-65
2023/03/26 06:32:23;;;;;;;6.60;6.20;;;8.00;99.90;;;;;;5054283;28;20644;-65
2023/03/26 06:34:49;;;;;;;7.33;6.73;;;8.00;99.90;;;;;;5054298;28;20174;-65
2023/03/26 06:37:15;;;;;;;12.23;7.20;;;8.10;99.90;;;;;;5034690;28;20664;-65
2023/03/26 06:39:41;;;;;;;6.13;5.77;;;8.10;99.90;;;;;;5022496;28;20218;-65
2023/03/26 06:42:06;;;;;;;6.77;6.10;;;8.20;99.90;;;;;;5052463;28;20214;-65
2023/03/26 06:44:33;;;;;;;5.73;5.40;;;8.20;99.90;;;;;;5048107;28;20175;-66
2023/03/26 06:46:58;;;;;;;5.50;5.30;;;8.20;99.90;;;;;;5034042;28;20251;-65
2023/03/26 06:49:24;;;;;;;6.10;5.60;;;8.20;99.90;;;;;;5036829;28;20237;-66
2023/03/26 06:51:49;;;;;;;11.20;6.07;;;8.20;99.90;;;;;;5053525;28;20185;-66
2023/03/26 06:54:15;;;;;;;6.00;5.60;;;8.20;99.90;;;;;;5051756;28;20175;-66
2023/03/26 06:56:41;;;;;;;11.03;5.93;;;8.20;99.90;;;;;;5033683;28;20609;-65
2023/03/26 06:59:07;;;;;;;7.93;5.47;;;8.20;99.90;;;;;;5015392;28;20294;-66
2023/03/26 07:01:32;;;;;;;6.07;5.50;;;8.20;99.90;;;;;;5033154;28;20740;-65
2023/03/26 07:03:58;;;;;;;12.37;6.97;;;8.20;99.90;;;;;;5033395;28;20178;-65
2023/03/26 07:06:24;;;;;;;8.80;5.33;;;8.20;99.90;;;;;;5053363;28;20202;-66
2023/03/26 07:08:49;;;;;;;6.47;5.70;;;8.20;99.90;;;;;;5037515;28;20230;-66
2023/03/26 07:11:17;;;;;;;6.63;6.03;;;8.30;99.90;;;;;;5032513;28;20178;-65
2023/03/26 07:13:43;;;;;;;6.53;6.00;;;8.40;99.90;;;;;;5047085;28;20250;-66
2023/03/26 07:16:09;;;;;;;7.03;6.57;;;8.40;99.90;;;;;;5053060;28;20683;-66
2023/03/26 07:18:34;;;;;;;6.30;6.00;;;8.40;99.90;;;;;;5022455;28;20270;-65
2023/03/26 07:21:00;;;;;;;6.73;6.23;;;8.40;99.90;;;;;;5032396;28;20203;-66
2023/03/26 07:23:26;;;;;;;7.30;6.73;;;8.40;99.90;;;;;;5043650;28;20186;-65
2023/03/26 07:25:52;;;;;;;9.50;6.10;;;8.50;99.90;;;;;;5053131;28;20163;-66
2023/03/26 07:28:24;;;;;;;9.33;8.17;;;8.50;99.90;;;;;;5043904;28;20262;-66
2023/03/26 07:31:05;;;;;;;7.37;6.87;;;8.50;99.90;;;;;;5032679;28;20638;-66
2023/03/26 07:33:36;;;;;;;7.40;6.87;;;8.50;99.90;;;;;;5034012;28;20270;-65
2023/03/26 07:36:20;;;;;;;9.43;7.13;;;8.50;99.90;;;;;;5033009;28;20179;-66
2023/03/26 07:39:02;;;;;;;10.17;7.27;;;8.50;99.90;;;;;;5012923;28;20561;-66
2023/03/26 07:41:33;;;;;;;7.97;7.27;;;8.50;99.90;;;;;;5016844;28;20242;-66
2023/03/26 07:44:22;;;;;;;8.87;7.30;;;8.40;99.90;;;;;;5052741;28;20171;-66
2023/03/26 07:46:52;;;;;;;10.30;7.33;;;8.40;99.90;;;;;;5031016;28;20676;-66
2023/03/26 07:49:19;;;;;;;8.70;7.87;;;8.40;99.90;;;;;;5014161;28;20226;-65
2023/03/26 07:51:45;;;;;;;7.30;6.70;;;8.40;99.90;;;;;;5015481;28;20191;-65
2023/03/26 07:54:11;;;;;;;8.13;7.63;;;8.40;99.90;;;;;;5029597;28;20649;-66
2023/03/26 07:56:56;;;;;;;7.43;6.83;;;8.50;99.90;;;;;;5041953;28;20213;-66
2023/03/26 07:59:25;;;;;;;7.63;7.07;;;8.50;99.90;;;;;;5048209;28;20290;-66
2023/03/26 08:02:28;;;;;;;6.93;6.37;;;8.50;99.90;;;;;;5043227;28;20617;-66
2023/03/26 08:05:02;;;;;;;13.13;7.53;;;8.50;99.90;;;;;;5052307;28;20225;-66
2023/03/26 08:07:38;;;;;;;14.03;7.07;;;8.40;99.90;;;;;;5036178;28;20218;-66
2023/03/26 08:10:45;;;;;;;9.10;6.93;;;8.50;99.90;;;;;;5031885;28;20230;-67
2023/03/26 08:13:36;;;;;;;6.27;5.67;;;8.40;99.90;;;;;;5001726;28;20198;-66
2023/03/26 08:16:18;;;;;;;6.93;6.53;;;8.40;99.90;;;;;;5016344;28;20177;-66
2023/03/26 08:18:46;;;;;;;6.37;5.90;;;8.40;99.90;;;;;;5049927;28;20273;-66
2023/03/26 08:21:21;;;;;;;6.53;6.17;;;8.30;99.90;;;;;;5031492;28;20195;-66
2023/03/26 08:24:05;;;;;;;6.80;6.30;;;8.30;99.90;;;;;;5015887;28;20175;-66
2023/03/26 08:26:46;;;;;;;9.13;6.60;;;8.30;99.90;;;;;;5042760;28;20218;-65
2023/03/26 08:29:21;;;;;;;7.10;6.53;;;8.40;99.90;;;;;;5036026;28;20221;-66
2023/03/26 08:31:48;;;;;;;7.30;6.80;;;8.30;99.90;;;;;;5051866;28;20179;-67
2023/03/26 08:34:14;;;;;;;7.93;7.13;;;8.30;99.90;;;;;;5047285;28;20237;-65
2023/03/26 08:36:40;;;;;;;7.47;6.87;;;8.40;99.90;;;;;;5031837;28;20176;-66
2023/03/26 08:39:06;;;;;;;7.83;7.03;;;8.40;99.90;;;;;;5033514;28;20229;-65
2023/03/26 08:41:32;;;;;;;8.93;7.00;;;8.40;99.90;;;;;;5051488;28;20260;-66
2023/03/26 08:44:16;;;;;;;8.47;7.10;;;8.40;99.90;;;;;;5050915;28;20167;-67
2023/03/26 08:46:58;;;;;;;7.23;6.53;;;8.40;99.90;;;;;;5012078;28;20169;-67
2023/03/26 08:49:55;;;;;;;7.70;6.97;;;8.40;99.90;;;;;;5018484;28;20297;-66
2023/03/26 08:52:47;;;;;;;7.03;6.43;;;8.40;99.90;;;;;;5051530;28;20236;-66
2023/03/26 08:55:42;;;;;;;12.53;7.37;;;8.40;99.90;;;;;;5041549;28;20187;-66
2023/03/26 08:58:28;;;;;;;7.63;7.03;;;8.40;99.90;;;;;;5031688;28;20183;-67
2023/03/26 09:01:20;;;;;;;7.77;7.03;;;8.40;99.90;;;;;;5043677;28;20202;-67
2023/03/26 09:03:57;;;;;;;8.67;7.80;;;8.40;99.90;;;;;;5046603;28;20229;-67
2023/03/26 09:06:49;;;;;;;6.83;6.23;;;8.40;99.90;;;;;;5015550;28;20190;-66
2023/03/26 09:09:31;;;;;;;7.67;7.17;;;8.40;99.90;;;;;;5030932;28;20195;-67
2023/03/26 09:11:57;;;;;;;6.97;6.57;;;8.40;99.90;;;;;;5011600;28;20194;-66
2023/03/26 09:14:26;;;;;;;7.53;7.13;;;8.40;99.90;;;;;;5041020;28;20657;-66
2023/03/26 09:17:07;;;;;;;7.43;6.97;;;8.40;99.90;;;;;;5042618;28;20181;-67
2023/03/26 09:20:01;;;;;;;7.23;6.63;;;8.40;99.90;;;;;;5047371;28;20206;-67
2023/03/26 09:22:47;;;;;;;7.63;6.23;;;8.40;99.90;;;;;;5003994;28;20451;-66
2023/03/26 09:25:42;;;;;;;6.67;6.23;;;8.40;99.90;;;;;;5013524;28;20176;-66
2023/03/26 09:28:19;;;;;;;6.07;5.20;;;8.40;99.90;;;;;;4982462;28;20743;-66
2023/03/26 09:31:21;;;;;;;6.20;5.70;;;8.20;99.90;;;;;;4993431;28;20199;-67
2023/03/26 09:33:58;;;;;;;5.30;5.10;;;8.10;99.90;;;;;;5011387;28;20245;-67
2023/03/26 09:36:45;;;;;;;5.67;5.30;;;8.00;99.90;;;;;;5030052;28;20684;-67
2023/03/26 09:39:37;;;;;;;6.30;5.70;;;7.90;99.90;;;;;;5034136;28;20305;-67
2023/03/26 09:42:19;;;;;;;6.80;6.20;;;7.80;99.90;;;;;;5047062;28;20560;-67
2023/03/26 09:44:56;;;;;;;6.40;6.10;;;7.70;99.90;;;;;;5034385;28;20266;-67
2023/03/26 09:47:41;;;;;;;6.50;6.10;;;7.70;99.90;;;;;;5031340;28;20186;-66
2023/03/26 09:50:28;;;;;;;6.43;5.87;;;7.70;99.90;;;;;;5038725;28;20203;-67
2023/03/26 09:53:17;;;;;;;6.63;6.33;;;7.70;99.90;;;;;;5013970;28;20184;-67
2023/03/26 09:56:09;;;;;;;6.80;6.40;;;7.80;99.90;;;;;;5013474;28;20207;-67
2023/03/26 09:58:48;;;;;;;6.27;5.97;;;8.00;99.90;;;;;;5031285;28;20594;-66
2023/03/26 10:01:26;;;;;;;6.27;5.87;;;8.00;99.90;;;;;;5012988;28;20335;-67
2023/03/26 10:04:16;;;;;;;6.07;5.73;;;8.20;99.90;;;;;;5031195;28;20642;-66
2023/03/26 10:07:07;;;;;;;5.53;5.07;;;8.20;99.90;;;;;;5031315;28;20211;-67
2023/03/26 10:09:49;;;;;;;5.57;5.27;;;8.20;99.90;;;;;;5017415;28;20294;-66
2023/03/26 10:12:30;;;;;;;5.80;5.30;;;8.20;99.90;;;;;;5031001;28;20574;-66
2023/03/26 10:15:18;;;;;;;5.93;5.63;;;8.30;99.90;;;;;;5031092;28;20179;-67
2023/03/26 10:18:28;;;;;;;6.77;6.13;;;8.40;99.90;;;;;;5033304;28;20615;-67
2023/03/26 10:21:10;;;;;;;6.17;5.67;;;8.40;99.90;;;;;;5028284;28;20595;-66
2023/03/26 10:23:35;;;;;;;5.83;5.53;;;8.30;99.90;;;;;;5034702;28;20254;-66
2023/03/26 10:26:38;;;;;;;6.67;6.10;;;8.40;99.90;;;;;;5034491;28;20255;-66
2023/03/26 10:29:44;;;;;;;6.23;5.73;;;8.40;99.90;;;;;;5034337;28;20191;-66
2023/03/26 10:32:32;;;;;;;8.17;6.10;;;8.30;99.90;;;;;;5016527;28;20245;-66
2023/03/26 10:35:07;;;;;;;7.67;5.60;;;8.30;99.90;;;;;;5034387;28;20172;-66
2023/03/26 10:37:35;;;;;;;6.20;5.70;;;8.30;99.90;;;;;;5034278;28;20258;-66
2023/03/26 10:40:25;;;;;;;5.73;5.43;;;8.30;99.90;;;;;;5034159;28;20288;-66
2023/03/26 10:43:16;;;;;;;6.33;5.80;;;8.40;99.90;;;;;;5034482;28;20196;-67
2023/03/26 10:45:57;;;;;;;5.80;5.50;;;8.60;99.90;;;;;;5033968;28;20598;-67
2023/03/26 10:48:35;;;;;;;6.73;6.23;;;8.60;99.90;;;;;;5034207;28;20360;-66
2023/03/26 10:51:19;;;;;;;6.73;6.33;;;8.50;99.90;;;;;;5033616;28;20168;-66
2023/03/26 10:53:55;;;;;;;6.10;5.80;;;8.50;99.90;;;;;;5016106;28;20187;-67
2023/03/26 10:56:35;;;;;;;5.90;5.60;;;8.50;99.90;;;;;;5033872;28;20175;-67
2023/03/26 10:59:07;;;;;;;6.70;5.83;;;8.60;99.90;;;;;;5033713;28;20237;-66
2023/03/26 11:01:35;;;;;;;6.23;5.83;;;8.60;99.90;;;;;;5033831;28;20198;-66
2023/03/26 11:04:35;;;;;;;6.53;6.13;;;8.70;99.90;;;;;;5033675;28;20175;-67
2023/03/26 11:07:17;;;;;;;6.30;6.00;;;8.70;99.90;;;;;;5032423;28;20180;-66
2023/03/26 11:10:07;;;;;;;6.33;6.03;;;8.60;99.90;;;;;;5033178;28;20569;-66
2023/03/26 11:13:02;;;;;;;6.50;6.10;;;8.60;99.90;;;;;;5015826;28;20175;-66
2023/03/26 11:15:42;;;;;;;6.37;5.97;;;8.60;99.90;;;;;;5033454;28;20258;-66
2023/03/26 11:18:30;;;;;;;6.97;6.43;;;8.60;99.90;;;;;;5033427;28;20163;-67
2023/03/26 11:21:21;;;;;;;7.53;6.30;;;8.70;99.90;;;;;;5033077;28;20199;-66
2023/03/26 11:24:05;;;;;;;6.70;6.20;;;8.70;99.90;;;;;;5033356;28;20649;-66
2023/03/26 11:27:05;;;;;;;6.93;6.40;;;8.80;99.90;;;;;;5033423;28;20179;-67
2023/03/26 11:29:55;;;;;;;7.20;6.60;;;8.80;99.90;;;;;;5031523;28;20191;-66
2023/03/26 11:32:31;;;;;;;6.83;6.30;;;8.70;99.90;;;;;;5015408;28;20180;-66
2023/03/26 11:35:07;;;;;;;6.60;6.07;;;8.70;99.90;;;;;;5033173;28;20274;-66
2023/03/26 11:37:38;;;;;;;7.20;6.80;;;8.60;99.90;;;;;;5033062;28;20225;-66
2023/03/26 11:40:14;;;;;;;6.60;6.03;;;8.60;99.90;;;;;;5032552;28;20685;-66
2023/03/26 11:42:40;;;;;;;6.53;6.20;;;8.60;99.90;;;;;;5033193;28;20527;-66
2023/03/26 11:45:21;;;;;;;7.03;6.60;;;8.60;99.90;;;;;;5032821;28;20168;-66
2023/03/26 11:47:54;;;;;;;7.03;6.60;;;8.70;99.90;;;;;;5032949;28;20179;-66
2023/03/26 11:50:25;;;;;;;7.10;6.60;;;8.70;99.90;;;;;;5032430;28;20194;-67
2023/03/26 11:52:56;;;;;;;7.13;6.40;;;8.80;99.90;;;;;;5032799;28;20230;-66
2023/03/26 11:55:23;;;;;;;6.30;6.00;;;9.00;99.90;;;;;;5032699;28;20168;-66
2023/03/26 11:57:56;;;;;;;6.87;6.17;;;9.00;99.90;;;;;;5032572;28;20163;-66
2023/03/26 12:00:26;;;;;;;6.57;6.17;;;9.10;99.90;;;;;;5031984;28;20242;-66
2023/03/26 12:02:55;;;;;;;7.50;6.93;;;9.30;99.90;;;;;;5031386;28;20712;-67
2023/03/26 12:05:30;;;;;;;7.80;7.10;;;9.40;99.90;;;;;;5032529;28;20172;-66
2023/03/26 12:07:57;;;;;;;6.33;5.83;;;9.50;99.90;;;;;;5031864;28;20565;-66
2023/03/26 12:10:37;;;;;;;6.70;6.20;;;9.60;99.90;;;;;;5032295;28;20191;-66
2023/03/26 12:13:37;;;;;;;7.67;6.20;;;9.60;99.90;;;;;;5032393;28;20251;-66
2023/03/26 12:16:15;;;;;;;5.80;5.50;;;9.80;99.90;;;;;;4977225;28;20665;-66
2023/03/26 12:18:43;;;;;;;6.40;6.00;;;9.90;99.90;;;;;;5032320;28;20164;-67
2023/03/26 12:21:11;;;;;;;6.33;5.80;;;10.00;99.90;;;;;;5031945;28;20281;-66
2023/03/26 12:23:56;;;;;;;5.70;5.20;;;10.00;99.90;;;;;;5032089;28;20176;-66
2023/03/26 12:26:47;;;;;;;5.80;5.30;;;10.00;99.90;;;;;;5032178;28;20172;-67
2023/03/26 12:29:16;;;;;;;5.60;5.30;;;10.10;99.90;;;;;;5031977;28;20191;-66
2023/03/26 12:31:45;;;;;;;5.57;5.10;;;10.20;99.90;;;;;;5031991;28;20186;-66
2023/03/26 12:34:30;;;;;;;5.80;5.50;;;10.40;99.90;;;;;;5032046;28;20572;-66
2023/03/26 12:36:59;;;;;;;5.50;5.20;;;10.60;99.90;;;;;;5032183;28;20225;-66
2023/03/26 12:39:32;;;;;;;6.10;5.70;;;10.60;99.90;;;;;;5031343;28;20580;-66
2023/03/26 12:42:00;;;;;;;5.93;5.53;;;10.60;99.90;;;;;;5012928;28;20199;-66
2023/03/26 12:44:56;;;;;;;6.43;6.00;;;10.70;99.90;;;;;;5030630;28;20224;-66
2023/03/26 12:47:29;;;;;;;5.53;5.00;;;10.90;99.90;;;;;;5009898;28;20187;-66
2023/03/26 12:49:56;;;;;;;5.53;5.20;;;11.20;99.90;;;;;;5030747;28;20188;-66
2023/03/26 12:52:51;;;;;;;7.23;4.90;;;11.30;99.90;;;;;;5031756;28;20178;-66
2023/03/26 12:55:41;;;;;;;5.57;5.27;;;11.40;99.90;;;;;;5031603;28;20178;-66
2023/03/26 12:58:39;;;;;;;5.23;5.00;;;11.60;99.90;;;;;;5031364;28;20179;-67
2023/03/26 13:01:14;;;;;;;4.70;4.50;;;11.60;99.90;;;;;;5031018;28;20199;-67
2023/03/26 13:03:58;;;;;;;6.70;5.13;;;11.60;99.90;;;;;;5031527;28;20170;-67
2023/03/26 13:06:40;;;;;;;5.30;5.00;;;11.60;99.90;;;;;;5031542;28;20604;-66
2023/03/26 13:09:46;;;;;;;5.57;5.27;;;11.60;99.90;;;;;;5030445;28;20183;-66
2023/03/26 13:12:21;;;;;;;4.90;4.60;;;11.70;99.90;;;;;;4976978;28;20557;-66
2023/03/26 13:15:15;;;;;;;5.60;5.20;;;11.80;99.90;;;;;;5031726;28;20521;-65
2023/03/26 13:18:06;;;;;;;5.63;5.13;;;11.80;99.90;;;;;;5031435;28;20175;-65
2023/03/26 13:20:55;;;;;;;5.30;5.00;;;11.60;99.90;;;;;;5030674;28;20294;-65
2023/03/26 13:23:53;;;;;;;4.83;4.63;;;11.20;99.90;;;;;;5031285;28;20649;-65
2023/03/26 13:26:44;;;;;;;4.93;4.73;;;11.00;99.90;;;;;;5031447;28;20168;-66
2023/03/26 13:29:32;;;;;;;4.70;4.50;;;10.70;99.90;;;;;;5030982;28;20560;-66
2023/03/26 13:32:13;;;;;;;4.60;4.40;;;10.70;99.90;;;;;;5031018;28;20598;-65